createdAt,value
2018-07-29T00:00:49.386Z,0
2018-07-29T00:01:50.363Z,0
2018-07-29T00:02:51.071Z,0
2018-07-29T00:03:52.047Z,0
2018-07-29T00:04:52.765Z,0
2018-07-29T00:05:53.485Z,0
2018-07-29T00:06:54.562Z,0
2018-07-29T00:07:55.298Z,0
2018-07-29T00:08:56.030Z,0
2018-07-29T00:09:56.750Z,0
2018-07-29T00:10:57.720Z,0
2018-07-29T00:11:58.702Z,0
2018-07-29T00:12:59.436Z,0
2018-07-29T00:14:00.172Z,0
2018-07-29T00:15:00.895Z,0
2018-07-29T00:16:01.613Z,0
2018-07-29T00:17:02.332Z,0
2018-07-29T00:18:03.059Z,0
2018-07-29T00:19:03.780Z,0
2018-07-29T00:20:04.514Z,0
2018-07-29T00:21:05.241Z,0
2018-07-29T00:22:05.971Z,0
2018-07-29T00:23:06.698Z,0
2018-07-29T00:24:07.670Z,0
2018-07-29T00:25:08.643Z,0
2018-07-29T00:26:09.364Z,0
2018-07-29T00:27:10.089Z,0
2018-07-29T00:28:10.832Z,0
2018-07-29T00:29:11.905Z,0
2018-07-29T00:30:12.643Z,0
2018-07-29T00:31:13.364Z,0
2018-07-29T00:32:14.035Z,0
2018-07-29T00:33:14.762Z,0
2018-07-29T00:34:15.851Z,0
2018-07-29T00:35:16.574Z,0
2018-07-29T00:36:17.294Z,0
2018-07-29T00:37:18.273Z,0
2018-07-29T00:38:18.979Z,0
2018-07-29T00:39:19.763Z,0
2018-07-29T00:40:20.505Z,0
2018-07-29T00:41:21.226Z,0
2018-07-29T00:42:21.946Z,0
2018-07-29T00:43:22.676Z,0
2018-07-29T00:44:23.413Z,0
2018-07-29T00:45:24.142Z,0
2018-07-29T00:46:24.918Z,0
2018-07-29T00:47:25.639Z,0
2018-07-29T00:48:26.366Z,0
2018-07-29T00:49:27.092Z,0
2018-07-29T00:50:27.827Z,0
2018-07-29T00:51:28.560Z,0
2018-07-29T00:52:29.333Z,0
2018-07-29T00:53:30.058Z,0
2018-07-29T00:54:30.777Z,0
2018-07-29T00:55:31.512Z,0
2018-07-29T00:56:32.233Z,0
2018-07-29T00:57:33.213Z,0
2018-07-29T00:58:33.948Z,0
2018-07-29T00:59:34.672Z,0
2018-07-29T01:00:35.399Z,0
2018-07-29T01:01:36.141Z,0
2018-07-29T01:02:36.914Z,0
2018-07-29T01:03:37.643Z,0
2018-07-29T01:04:38.405Z,0
2018-07-29T01:05:51.901Z,0
2018-07-29T01:06:52.727Z,0
2018-07-29T01:08:55.291Z,0
2018-07-29T01:09:56.255Z,0
2018-07-29T01:10:56.979Z,0
2018-07-29T01:11:57.698Z,0
2018-07-29T01:12:58.429Z,0
2018-07-29T01:13:59.162Z,0
2018-07-29T01:14:59.850Z,0
2018-07-29T01:16:00.571Z,0
2018-07-29T01:17:01.294Z,0
2018-07-29T01:18:02.272Z,0
2018-07-29T01:19:03.004Z,0
2018-07-29T01:20:03.978Z,0
2018-07-29T01:21:04.699Z,0
2018-07-29T01:22:05.429Z,0
2018-07-29T01:23:06.164Z,0
2018-07-29T01:24:06.885Z,0
2018-07-29T01:25:07.667Z,0
2018-07-29T01:26:08.391Z,0
2018-07-29T01:27:09.125Z,0
2018-07-29T01:28:09.852Z,0
2018-07-29T01:29:10.588Z,0
2018-07-29T01:30:11.365Z,0
2018-07-29T01:31:12.098Z,0
2018-07-29T01:32:12.824Z,0
2018-07-29T01:33:13.545Z,0
2018-07-29T01:34:14.267Z,0
2018-07-29T01:35:15.004Z,0
2018-07-29T01:36:15.726Z,0
2018-07-29T01:37:16.451Z,0
2018-07-29T01:38:17.182Z,0
2018-07-29T01:39:17.908Z,0
2018-07-29T01:40:18.625Z,0
2018-07-29T01:41:19.348Z,0
2018-07-29T01:42:20.075Z,0
2018-07-29T01:43:20.801Z,0
2018-07-29T01:44:21.523Z,0
2018-07-29T01:45:22.254Z,0
2018-07-29T01:46:23.009Z,0
2018-07-29T01:47:24.007Z,0
2018-07-29T01:48:24.782Z,0
2018-07-29T01:49:25.510Z,0
2018-07-29T01:50:26.236Z,0
2018-07-29T01:51:26.960Z,0
2018-07-29T01:52:27.689Z,0
2018-07-29T01:53:28.428Z,0
2018-07-29T01:54:29.148Z,0
2018-07-29T01:55:29.879Z,0
2018-07-29T01:56:30.598Z,0
2018-07-29T01:57:31.322Z,0
2018-07-29T01:58:32.043Z,0
2018-07-29T01:59:32.769Z,0
2018-07-29T02:00:33.749Z,0
2018-07-29T02:01:34.466Z,0
2018-07-29T02:02:35.213Z,0
2018-07-29T02:03:35.945Z,0
2018-07-29T02:04:37.017Z,0
2018-07-29T02:05:37.749Z,0
2018-07-29T02:06:38.471Z,0
2018-07-29T02:07:39.192Z,0
2018-07-29T02:08:39.929Z,0
2018-07-29T02:09:40.655Z,0
2018-07-29T02:10:41.382Z,0
2018-07-29T02:11:42.102Z,0
2018-07-29T02:12:42.820Z,0
2018-07-29T02:13:43.533Z,0
2018-07-29T02:14:44.267Z,0
2018-07-29T02:15:45.355Z,0
2018-07-29T02:16:46.205Z,0
2018-07-29T02:17:47.156Z,0
2018-07-29T02:18:47.901Z,0
2018-07-29T02:19:48.679Z,0
2018-07-29T02:20:49.528Z,0
2018-07-29T02:21:50.331Z,0
2018-07-29T02:22:51.165Z,0
2018-07-29T02:23:52.410Z,0
2018-07-29T02:24:53.218Z,0
2018-07-29T02:25:54.009Z,0
2018-07-29T02:26:55.149Z,0
2018-07-29T02:27:56.399Z,0
2018-07-29T02:28:57.528Z,0
2018-07-29T02:29:58.281Z,0
2018-07-29T02:30:59.170Z,0
2018-07-29T02:32:00.102Z,0
2018-07-29T02:33:00.843Z,0
2018-07-29T02:34:01.753Z,0
2018-07-29T02:35:02.656Z,0
2018-07-29T02:36:03.395Z,0
2018-07-29T02:37:04.176Z,0
2018-07-29T02:38:05.126Z,0
2018-07-29T02:39:05.925Z,0
2018-07-29T02:40:06.668Z,0
2018-07-29T02:41:07.627Z,0
2018-07-29T02:42:08.443Z,0
2018-07-29T02:43:09.182Z,0
2018-07-29T02:44:10.374Z,0
2018-07-29T02:45:11.474Z,0
2018-07-29T02:46:12.195Z,0
2018-07-29T02:47:13.131Z,0
2018-07-29T02:48:13.919Z,0
2018-07-29T02:49:14.721Z,0
2018-07-29T02:50:15.595Z,0
2018-07-29T02:51:16.391Z,0
2018-07-29T02:52:17.068Z,0
2018-07-29T02:53:17.783Z,0
2018-07-29T02:54:18.516Z,0
2018-07-29T02:55:19.260Z,0
2018-07-29T02:56:19.988Z,0
2018-07-29T02:57:20.763Z,0
2018-07-29T02:58:21.734Z,0
2018-07-29T02:59:22.534Z,0
2018-07-29T03:00:23.183Z,0
2018-07-29T03:01:24.165Z,4
2018-07-29T03:02:25.237Z,4
2018-07-29T03:03:26.205Z,4
2018-07-29T03:04:26.940Z,0
2018-07-29T03:05:27.663Z,4
2018-07-29T03:06:28.643Z,4
2018-07-29T03:07:29.346Z,4
2018-07-29T03:08:30.071Z,8
2018-07-29T03:09:30.791Z,4
2018-07-29T03:10:31.511Z,8
2018-07-29T03:11:32.233Z,8
2018-07-29T03:12:33.210Z,8
2018-07-29T03:13:33.997Z,12
2018-07-29T03:14:34.718Z,12
2018-07-29T03:15:35.447Z,16
2018-07-29T03:16:36.171Z,16
2018-07-29T03:17:37.198Z,20
2018-07-29T03:18:37.873Z,24
2018-07-29T03:19:38.593Z,24
2018-07-29T03:20:39.317Z,28
2018-07-29T03:21:40.295Z,32
2018-07-29T03:22:41.012Z,40
2018-07-29T03:23:41.750Z,44
2018-07-29T03:24:42.525Z,52
2018-07-29T03:25:43.252Z,56
2018-07-29T03:26:43.985Z,64
2018-07-29T03:27:44.665Z,68
2018-07-29T03:28:45.397Z,76
2018-07-29T03:29:46.133Z,88
2018-07-29T03:30:46.852Z,96
2018-07-29T03:31:47.629Z,108
2018-07-29T03:32:48.368Z,116
2018-07-29T03:33:49.094Z,132
2018-07-29T03:34:49.811Z,144
2018-07-29T03:35:50.563Z,156
2018-07-29T03:36:51.282Z,172
2018-07-29T03:37:52.255Z,188
2018-07-29T03:38:52.974Z,204
2018-07-29T03:39:53.699Z,224
2018-07-29T03:40:54.419Z,244
2018-07-29T03:41:55.157Z,264
2018-07-29T03:42:55.938Z,288
2018-07-29T03:43:56.674Z,320
2018-07-29T03:44:57.399Z,352
2018-07-29T03:45:58.127Z,376
2018-07-29T03:46:58.853Z,408
2018-07-29T03:47:59.572Z,440
2018-07-29T03:49:00.292Z,476
2018-07-29T03:50:01.015Z,504
2018-07-29T03:51:01.747Z,544
2018-07-29T03:52:02.475Z,584
2018-07-29T03:53:03.193Z,624
2018-07-29T03:54:03.922Z,672
2018-07-29T03:55:04.646Z,728
2018-07-29T03:56:05.371Z,788
2018-07-29T03:57:06.199Z,844
2018-07-29T03:58:06.952Z,912
2018-07-29T03:59:07.813Z,980
2018-07-29T04:00:08.700Z,1052
2018-07-29T04:01:09.465Z,1112
2018-07-29T04:02:10.235Z,1184
2018-07-29T04:03:11.538Z,1252
2018-07-29T04:04:12.354Z,1332
2018-07-29T04:05:13.126Z,1420
2018-07-29T04:06:13.845Z,1496
2018-07-29T04:07:14.570Z,1544
2018-07-29T04:08:15.295Z,1572
2018-07-29T04:09:16.030Z,1628
2018-07-29T04:10:16.757Z,1700
2018-07-29T04:11:17.534Z,1772
2018-07-29T04:12:18.261Z,1812
2018-07-29T04:13:19.245Z,1804
2018-07-29T04:14:19.969Z,1756
2018-07-29T04:15:20.707Z,1700
2018-07-29T04:16:21.787Z,1664
2018-07-29T04:17:22.520Z,1656
2018-07-29T04:18:23.258Z,1664
2018-07-29T04:19:23.993Z,1672
2018-07-29T04:20:24.728Z,1680
2018-07-29T04:21:25.503Z,1712
2018-07-29T04:22:26.231Z,1768
2018-07-29T04:23:26.960Z,1844
2018-07-29T04:24:27.701Z,1920
2018-07-29T04:25:28.423Z,1988
2018-07-29T04:26:29.208Z,2056
2018-07-29T04:27:29.861Z,2116
2018-07-29T04:28:30.578Z,2184
2018-07-29T04:29:31.318Z,2228
2018-07-29T04:30:32.056Z,2232
2018-07-29T04:31:33.039Z,2204
2018-07-29T04:32:33.767Z,2268
2018-07-29T04:33:34.502Z,2372
2018-07-29T04:34:35.237Z,2408
2018-07-29T04:35:35.968Z,2396
2018-07-29T04:36:36.700Z,2364
2018-07-29T04:37:37.638Z,2320
2018-07-29T04:38:38.366Z,2292
2018-07-29T04:39:39.040Z,2256
2018-07-29T04:40:39.718Z,2204
2018-07-29T04:41:40.406Z,2152
2018-07-29T04:42:41.098Z,2108
2018-07-29T04:43:41.769Z,2048
2018-07-29T04:44:42.465Z,2008
2018-07-29T04:45:43.144Z,1968
2018-07-29T04:46:43.826Z,1948
2018-07-29T04:47:44.509Z,1944
2018-07-29T04:48:45.195Z,1940
2018-07-29T04:49:45.882Z,1924
2018-07-29T04:50:46.806Z,1908
2018-07-29T04:51:47.480Z,1900
2018-07-29T04:52:48.165Z,1904
2018-07-29T04:53:49.198Z,1912
2018-07-29T04:54:49.878Z,1924
2018-07-29T04:55:50.566Z,1944
2018-07-29T04:56:51.242Z,1964
2018-07-29T04:57:51.927Z,1980
2018-07-29T04:58:52.967Z,2004
2018-07-29T04:59:53.650Z,2048
2018-07-29T05:00:54.329Z,2100
2018-07-29T05:01:55.013Z,2176
2018-07-29T05:02:55.696Z,2288
2018-07-29T05:03:56.382Z,2404
2018-07-29T05:04:57.407Z,2496
2018-07-29T05:05:58.084Z,2572
2018-07-29T05:06:58.769Z,2720
2018-07-29T05:07:59.470Z,2836
2018-07-29T05:09:00.149Z,2932
2018-07-29T05:10:00.821Z,3132
2018-07-29T05:11:01.631Z,3284
2018-07-29T05:12:02.185Z,3288
2018-07-29T05:13:02.865Z,3368
2018-07-29T05:14:03.549Z,3280
2018-07-29T05:15:04.238Z,3344
2018-07-29T05:16:04.930Z,3496
2018-07-29T05:17:05.614Z,3580
2018-07-29T05:18:06.290Z,3720
2018-07-29T05:19:06.981Z,3756
2018-07-29T05:20:07.653Z,3852
2018-07-29T05:21:08.339Z,3912
2018-07-29T05:22:09.018Z,4296
2018-07-29T05:23:09.949Z,4360
2018-07-29T05:24:10.631Z,4344
2018-07-29T05:25:11.311Z,4944
2018-07-29T05:26:11.989Z,5224
2018-07-29T05:27:12.974Z,6228
2018-07-29T05:28:13.650Z,6388
2018-07-29T05:29:14.340Z,6392
2018-07-29T05:30:15.021Z,6500
2018-07-29T05:31:15.752Z,6040
2018-07-29T05:32:16.499Z,6148
2018-07-29T05:33:17.212Z,5896
2018-07-29T05:34:17.905Z,6736
2018-07-29T05:35:18.631Z,6988
2018-07-29T05:36:19.355Z,6324
2018-07-29T05:37:20.093Z,7016
2018-07-29T05:38:20.834Z,7520
2018-07-29T05:39:21.817Z,7096
2018-07-29T05:40:22.602Z,6688
2018-07-29T05:41:23.338Z,6952
2018-07-29T05:42:24.070Z,7120
2018-07-29T05:43:24.742Z,6448
2018-07-29T05:44:25.418Z,6876
2018-07-29T05:45:26.162Z,7468
2018-07-29T05:46:26.837Z,8936
2018-07-29T05:47:27.772Z,9760
2018-07-29T05:48:28.715Z,8516
2018-07-29T05:49:29.403Z,7516
2018-07-29T05:50:30.174Z,7580
2018-07-29T05:51:30.857Z,7944
2018-07-29T05:52:31.527Z,8020
2018-07-29T05:53:32.457Z,8520
2018-07-29T05:54:33.137Z,8856
2018-07-29T05:55:33.835Z,8312
2018-07-29T05:56:34.538Z,8644
2018-07-29T05:57:35.221Z,8820
2018-07-29T05:58:35.908Z,8992
2018-07-29T05:59:36.597Z,9288
2018-07-29T06:00:37.280Z,9788
2018-07-29T06:01:38.266Z,10656
2018-07-29T06:02:38.952Z,11040
2018-07-29T06:03:39.633Z,10848
2018-07-29T06:04:40.313Z,11316
2018-07-29T06:05:40.995Z,11920
2018-07-29T06:06:42.040Z,11976
2018-07-29T06:07:43.915Z,12724
2018-07-29T06:08:45.835Z,14188
2018-07-29T06:09:46.507Z,15024
2018-07-29T06:10:47.888Z,15692
2018-07-29T06:11:48.992Z,16464
2018-07-29T06:12:49.637Z,18144
2018-07-29T06:13:50.332Z,19360
2018-07-29T06:14:51.284Z,19744
2018-07-29T06:15:51.954Z,19968
2018-07-29T06:16:52.640Z,20096
2018-07-29T06:17:53.322Z,20064
2018-07-29T06:18:54.080Z,19808
2018-07-29T06:19:54.764Z,19296
2018-07-29T06:20:55.693Z,18304
2018-07-29T06:21:56.387Z,18528
2018-07-29T06:22:57.102Z,18720
2018-07-29T06:23:57.968Z,18688
2018-07-29T06:24:58.653Z,18592
2018-07-29T06:25:59.358Z,18304
2018-07-29T06:27:00.068Z,17952
2018-07-29T06:28:00.737Z,17728
2018-07-29T06:29:01.800Z,17632
2018-07-29T06:30:02.458Z,17600
2018-07-29T06:31:03.149Z,17824
2018-07-29T06:32:03.838Z,18048
2018-07-29T06:33:04.525Z,18272
2018-07-29T06:34:05.261Z,18592
2018-07-29T06:35:05.940Z,18752
2018-07-29T06:36:06.621Z,18720
2018-07-29T06:37:07.598Z,18816
2018-07-29T06:38:08.278Z,19264
2018-07-29T06:39:09.021Z,19392
2018-07-29T06:40:09.754Z,19712
2018-07-29T06:41:10.749Z,19872
2018-07-29T06:42:11.477Z,20288
2018-07-29T06:43:12.205Z,20480
2018-07-29T06:44:12.938Z,20736
2018-07-29T06:45:13.664Z,21216
2018-07-29T06:46:14.398Z,21472
2018-07-29T06:47:15.134Z,21600
2018-07-29T06:48:15.871Z,21888
2018-07-29T06:49:16.594Z,21792
2018-07-29T06:50:17.337Z,21600
2018-07-29T06:51:18.373Z,21536
2018-07-29T06:52:19.100Z,21312
2018-07-29T06:53:19.832Z,20992
2018-07-29T06:54:20.574Z,20768
2018-07-29T06:55:21.309Z,20544
2018-07-29T06:56:22.062Z,20416
2018-07-29T06:57:22.783Z,20160
2018-07-29T06:58:23.525Z,19936
2018-07-29T06:59:24.254Z,19904
2018-07-29T07:00:24.982Z,19904
2018-07-29T07:01:25.713Z,19840
2018-07-29T07:02:26.509Z,20096
2018-07-29T07:03:27.240Z,20320
2018-07-29T07:04:27.981Z,20256
2018-07-29T07:05:28.707Z,20320
2018-07-29T07:06:29.690Z,20608
2018-07-29T07:07:30.556Z,20896
2018-07-29T07:08:31.225Z,21152
2018-07-29T07:09:31.974Z,21376
2018-07-29T07:10:32.803Z,21888
2018-07-29T07:11:33.442Z,22016
2018-07-29T07:12:34.191Z,22784
2018-07-29T07:13:34.941Z,23968
2018-07-29T07:14:35.667Z,25440
2018-07-29T07:15:36.424Z,27072
2018-07-29T07:16:37.148Z,29248
2018-07-29T07:17:37.880Z,35680
2018-07-29T07:18:38.607Z,32576
2018-07-29T07:19:39.333Z,34400
2018-07-29T07:20:40.076Z,35232
2018-07-29T07:21:40.809Z,48224
2018-07-29T07:22:41.552Z,41440
2018-07-29T07:23:42.282Z,40096
2018-07-29T07:24:43.017Z,41536
2018-07-29T07:25:43.755Z,33472
2018-07-29T07:26:44.491Z,29440
2018-07-29T07:27:45.242Z,28192
2018-07-29T07:28:46.021Z,27968
2018-07-29T07:29:46.751Z,27392
2018-07-29T07:30:47.508Z,26432
2018-07-29T07:31:48.236Z,25920
2018-07-29T07:32:49.028Z,25952
2018-07-29T07:33:49.696Z,25888
2018-07-29T07:34:50.552Z,26048
2018-07-29T07:35:51.231Z,25856
2018-07-29T07:36:51.971Z,26080
2018-07-29T07:37:52.968Z,25696
2018-07-29T07:38:53.700Z,25280
2018-07-29T07:39:54.442Z,25472
2018-07-29T07:40:55.219Z,26048
2018-07-29T07:41:55.955Z,26976
2018-07-29T07:42:56.694Z,27424
2018-07-29T07:43:57.444Z,28256
2018-07-29T07:44:58.186Z,28800
2018-07-29T07:45:58.988Z,28832
2018-07-29T07:46:59.708Z,29696
2018-07-29T07:48:00.453Z,29472
2018-07-29T07:49:01.211Z,29408
2018-07-29T07:50:01.944Z,30080
2018-07-29T07:51:02.732Z,30688
2018-07-29T07:52:03.494Z,31904
2018-07-29T07:53:04.225Z,32960
2018-07-29T07:54:04.968Z,31104
2018-07-29T07:55:05.699Z,35968
2018-07-29T07:56:06.438Z,30144
2018-07-29T07:57:07.180Z,27520
2018-07-29T07:58:07.910Z,26848
2018-07-29T07:59:08.670Z,27104
2018-07-29T08:00:09.413Z,28352
2018-07-29T08:01:10.169Z,33280
2018-07-29T08:02:10.916Z,28224
2018-07-29T08:03:11.593Z,28000
2018-07-29T08:04:12.334Z,28736
2018-07-29T08:05:13.072Z,30976
2018-07-29T08:06:13.802Z,32704
2018-07-29T08:07:14.555Z,57760
2018-07-29T08:08:15.291Z,37952
2018-07-29T08:09:16.094Z,36064
2018-07-29T08:10:16.813Z,32448
2018-07-29T08:11:17.562Z,32096
2018-07-29T08:12:18.307Z,38304
2018-07-29T08:13:19.293Z,47104
2018-07-29T08:14:20.395Z,65344
2018-07-29T08:15:21.123Z,58400
2018-07-29T08:16:21.927Z,68448
2018-07-29T08:17:22.622Z,55648
2018-07-29T08:18:23.361Z,86240
2018-07-29T08:19:24.352Z,86208
2018-07-29T08:20:25.087Z,84224
2018-07-29T08:21:25.832Z,64928
2018-07-29T08:22:26.568Z,83104
2018-07-29T08:23:27.356Z,43392
2018-07-29T08:24:28.088Z,59232
2018-07-29T08:25:28.827Z,88064
2018-07-29T08:26:29.570Z,86176
2018-07-29T08:27:30.301Z,83520
2018-07-29T08:28:31.038Z,52544
2018-07-29T08:29:31.770Z,38176
2018-07-29T08:30:32.769Z,57664
2018-07-29T08:31:33.508Z,42304
2018-07-29T08:32:34.236Z,48384
2018-07-29T08:33:35.006Z,78400
2018-07-29T08:34:35.706Z,47648
2018-07-29T08:35:36.448Z,48896
2018-07-29T08:36:37.174Z,53056
2018-07-29T08:37:37.927Z,68704
2018-07-29T08:38:38.665Z,55872
2018-07-29T08:39:39.398Z,48384
2018-07-29T08:40:40.148Z,63744
2018-07-29T08:41:40.880Z,53120
2018-07-29T08:42:41.612Z,64160
2018-07-29T08:43:42.379Z,61312
2018-07-29T08:44:43.107Z,62560
2018-07-29T08:45:43.842Z,58048
2018-07-29T08:46:44.582Z,61856
2018-07-29T08:47:45.309Z,77248
2018-07-29T08:48:46.046Z,77984
2018-07-29T08:49:46.778Z,65024
2018-07-29T08:50:47.521Z,73024
2018-07-29T08:51:48.255Z,70368
2018-07-29T08:52:49.489Z,79520
2018-07-29T08:53:50.214Z,79456
2018-07-29T08:54:50.948Z,78656
2018-07-29T08:55:51.723Z,74592
2018-07-29T08:56:52.457Z,76032
2018-07-29T08:57:53.195Z,69888
2018-07-29T08:58:53.940Z,75584
2018-07-29T08:59:54.671Z,75552
2018-07-29T09:00:55.431Z,79488
2018-07-29T09:01:56.164Z,76096
2018-07-29T09:02:56.920Z,91616
2018-07-29T09:03:57.723Z,74848
2018-07-29T09:04:58.451Z,63328
2018-07-29T09:05:59.188Z,65728
2018-07-29T09:06:59.933Z,55072
2018-07-29T09:08:00.716Z,53216
2018-07-29T09:09:01.464Z,46784
2018-07-29T09:10:02.267Z,48608
2018-07-29T09:11:03.014Z,64480
2018-07-29T09:12:03.749Z,75296
2018-07-29T09:13:04.493Z,106944
2018-07-29T09:14:05.228Z,99584
2018-07-29T09:15:05.971Z,71104
2018-07-29T09:16:06.721Z,77440
2018-07-29T09:17:07.456Z,68128
2018-07-29T09:18:08.551Z,55552
2018-07-29T09:19:09.294Z,60192
2018-07-29T09:20:10.033Z,75616
2018-07-29T09:21:10.771Z,61056
2018-07-29T09:22:11.497Z,55744
2018-07-29T09:23:12.300Z,53184
2018-07-29T09:24:13.043Z,61280
2018-07-29T09:25:13.775Z,106656
2018-07-29T09:26:14.514Z,68928
2018-07-29T09:27:15.251Z,61504
2018-07-29T09:28:15.993Z,62784
2018-07-29T09:29:16.729Z,65856
2018-07-29T09:30:17.912Z,60512
2018-07-29T09:31:18.870Z,65664
2018-07-29T09:32:19.603Z,60352
2018-07-29T09:33:20.344Z,51552
2018-07-29T09:34:21.082Z,60736
2018-07-29T09:35:21.819Z,63552
2018-07-29T09:36:22.565Z,61216
2018-07-29T09:37:23.307Z,65824
2018-07-29T09:38:24.040Z,70048
2018-07-29T09:39:24.778Z,64832
2018-07-29T09:40:25.532Z,60896
2018-07-29T09:41:26.308Z,59936
2018-07-29T09:42:27.046Z,48832
2018-07-29T09:43:27.785Z,49216
2018-07-29T09:44:28.768Z,51648
2018-07-29T09:45:29.530Z,53696
2018-07-29T09:46:30.239Z,51680
2018-07-29T09:47:31.226Z,55296
2018-07-29T09:48:31.959Z,55744
2018-07-29T09:49:32.700Z,48000
2018-07-29T09:50:33.444Z,46304
2018-07-29T09:51:34.175Z,45664
2018-07-29T09:52:34.914Z,47488
2018-07-29T09:53:35.659Z,60864
2018-07-29T09:54:36.439Z,64224
2018-07-29T09:55:37.500Z,62752
2018-07-29T09:56:38.243Z,59744
2018-07-29T09:57:38.974Z,52640
2018-07-29T09:58:39.716Z,46912
2018-07-29T09:59:40.474Z,46432
2018-07-29T10:00:41.257Z,47648
2018-07-29T10:01:42.001Z,47200
2018-07-29T10:02:42.731Z,48736
2018-07-29T10:03:43.477Z,44832
2018-07-29T10:04:44.213Z,43744
2018-07-29T10:05:44.964Z,43328
2018-07-29T10:06:45.702Z,43392
2018-07-29T10:07:46.444Z,42976
2018-07-29T10:08:47.175Z,42112
2018-07-29T10:09:47.921Z,42656
2018-07-29T10:10:48.670Z,45440
2018-07-29T10:11:49.409Z,48928
2018-07-29T10:12:50.142Z,48736
2018-07-29T10:13:50.932Z,50048
2018-07-29T10:14:51.665Z,56064
2018-07-29T10:15:52.399Z,50848
2018-07-29T10:16:53.130Z,48576
2018-07-29T10:17:53.869Z,47008
2018-07-29T10:18:54.722Z,46656
2018-07-29T10:19:55.485Z,47328
2018-07-29T10:20:56.272Z,49504
2018-07-29T10:21:56.966Z,49568
2018-07-29T10:22:57.703Z,50400
2018-07-29T10:23:58.455Z,50048
2018-07-29T10:24:59.203Z,50432
2018-07-29T10:26:00.002Z,50880
2018-07-29T10:27:00.739Z,58464
2018-07-29T10:28:01.486Z,76736
2018-07-29T10:29:02.224Z,67616
2018-07-29T10:30:02.981Z,52064
2018-07-29T10:31:04.316Z,49568
2018-07-29T10:32:05.297Z,52000
2018-07-29T10:33:06.032Z,66944
2018-07-29T10:34:06.765Z,79808
2018-07-29T10:35:07.515Z,80160
2018-07-29T10:36:08.260Z,101312
2018-07-29T10:37:09.009Z,69376
2018-07-29T10:38:09.748Z,66240
2018-07-29T10:39:10.482Z,69120
2018-07-29T10:40:11.265Z,61472
2018-07-29T10:41:12.005Z,58240
2018-07-29T10:42:12.743Z,52224
2018-07-29T10:43:13.476Z,50752
2018-07-29T10:44:14.212Z,48960
2018-07-29T10:45:14.949Z,48608
2018-07-29T10:46:15.676Z,46560
2018-07-29T10:47:16.505Z,46368
2018-07-29T10:48:17.187Z,45536
2018-07-29T10:49:17.924Z,46080
2018-07-29T10:50:18.666Z,48544
2018-07-29T10:51:19.581Z,55200
2018-07-29T10:52:20.624Z,51904
2018-07-29T10:53:21.365Z,60288
2018-07-29T10:54:22.523Z,62656
2018-07-29T10:55:23.885Z,57024
2018-07-29T10:56:24.742Z,51648
2018-07-29T10:57:25.477Z,65696
2018-07-29T10:58:26.220Z,49408
2018-07-29T10:59:26.960Z,47168
2018-07-29T11:00:27.700Z,46720
2018-07-29T11:01:28.437Z,54816
2018-07-29T11:02:29.175Z,54464
2018-07-29T11:03:29.968Z,51936
2018-07-29T11:04:30.710Z,73920
2018-07-29T11:05:31.444Z,52960
2018-07-29T11:06:32.198Z,75360
2018-07-29T11:07:32.944Z,68128
2018-07-29T11:08:33.682Z,69184
2018-07-29T11:09:34.671Z,131264
2018-07-29T11:10:35.425Z,117248
2018-07-29T11:11:36.162Z,93152
2018-07-29T11:12:36.895Z,131040
2018-07-29T11:13:37.692Z,91232
2018-07-29T11:14:38.387Z,93696
2018-07-29T11:15:39.429Z,124512
2018-07-29T11:16:40.160Z,122208
2018-07-29T11:17:40.906Z,123360
2018-07-29T11:18:41.654Z,126496
2018-07-29T11:19:42.393Z,124064
2018-07-29T11:20:43.174Z,76256
2018-07-29T11:21:43.930Z,74112
2018-07-29T11:22:44.657Z,48864
2018-07-29T11:23:45.429Z,41824
2018-07-29T11:24:46.134Z,96352
2018-07-29T11:25:46.869Z,80864
2018-07-29T11:26:47.611Z,59264
2018-07-29T11:27:48.354Z,49888
2018-07-29T11:28:49.104Z,51840
2018-07-29T11:29:49.847Z,53312
2018-07-29T11:30:50.659Z,60064
2018-07-29T11:31:51.781Z,59232
2018-07-29T11:32:52.533Z,102784
2018-07-29T11:33:53.272Z,69216
2018-07-29T11:34:54.039Z,63936
2018-07-29T11:35:54.876Z,50688
2018-07-29T11:36:55.558Z,52256
2018-07-29T11:37:56.294Z,53152
2018-07-29T11:38:57.042Z,71552
2018-07-29T11:39:57.783Z,49248
2018-07-29T11:40:58.572Z,51232
2018-07-29T11:41:59.307Z,52480
2018-07-29T11:43:00.291Z,52384
2018-07-29T11:44:01.032Z,63072
2018-07-29T11:45:01.772Z,58144
2018-07-29T11:46:02.514Z,56128
2018-07-29T11:47:03.251Z,85568
2018-07-29T11:48:04.019Z,119616
2018-07-29T11:49:04.751Z,126784
2018-07-29T11:50:05.764Z,61952
2018-07-29T11:51:06.765Z,68768
2018-07-29T11:52:08.393Z,50624
2018-07-29T11:53:09.128Z,46080
2018-07-29T11:54:09.908Z,48480
2018-07-29T11:55:10.900Z,61184
2018-07-29T11:56:11.639Z,103040
2018-07-29T11:57:12.422Z,92544
2018-07-29T11:58:13.644Z,88320
2018-07-29T11:59:14.371Z,74784
2018-07-29T12:00:15.102Z,51680
2018-07-29T12:01:16.159Z,58752
2018-07-29T12:02:17.309Z,56704
2018-07-29T12:03:18.093Z,74368
2018-07-29T12:04:19.081Z,68192
2018-07-29T12:05:20.071Z,62912
2018-07-29T12:06:20.813Z,75328
2018-07-29T12:07:21.563Z,78496
2018-07-29T12:08:22.306Z,111232
2018-07-29T12:09:23.044Z,103584
2018-07-29T12:10:23.783Z,109472
2018-07-29T12:11:24.706Z,111392
2018-07-29T12:12:25.285Z,54400
2018-07-29T12:13:26.320Z,105472
2018-07-29T12:14:27.089Z,28512
2018-07-29T12:15:28.092Z,111744
2018-07-29T12:16:28.828Z,105056
2018-07-29T12:17:29.834Z,103968
2018-07-29T12:18:30.572Z,29696
2018-07-29T12:19:31.316Z,23040
2018-07-29T12:20:32.062Z,22848
2018-07-29T12:21:33.124Z,33440
2018-07-29T12:22:33.965Z,44576
2018-07-29T12:23:34.707Z,25888
2018-07-29T12:24:35.446Z,106624
2018-07-29T12:25:36.188Z,64000
2018-07-29T12:26:36.949Z,107200
2018-07-29T12:27:37.716Z,30240
2018-07-29T12:28:38.468Z,23328
2018-07-29T12:29:39.253Z,48352
2018-07-29T12:30:40.003Z,60096
2018-07-29T12:31:40.734Z,101568
2018-07-29T12:32:41.486Z,100192
2018-07-29T12:33:42.483Z,97728
2018-07-29T12:34:43.245Z,98592
2018-07-29T12:35:43.976Z,100032
2018-07-29T12:36:44.714Z,50912
2018-07-29T12:37:45.524Z,73088
2018-07-29T12:38:46.254Z,85344
2018-07-29T12:39:47.012Z,83904
2018-07-29T12:40:47.803Z,89792
2018-07-29T12:41:48.835Z,37408
2018-07-29T12:42:50.687Z,43136
2018-07-29T12:43:51.655Z,79712
2018-07-29T12:44:52.916Z,32128
2018-07-29T12:45:53.852Z,101280
2018-07-29T12:46:54.594Z,59072
2018-07-29T12:47:55.330Z,84640
2018-07-29T12:48:56.838Z,93696
2018-07-29T12:49:57.573Z,63968
2018-07-29T12:50:58.668Z,101568
2018-07-29T12:51:59.399Z,80704
2018-07-29T12:53:00.139Z,94720
2018-07-29T12:54:00.875Z,98272
2018-07-29T12:55:01.619Z,71136
2018-07-29T12:56:02.413Z,80480
2018-07-29T12:57:03.179Z,37344
2018-07-29T12:58:03.912Z,33216
2018-07-29T12:59:04.644Z,34080
2018-07-29T13:00:05.379Z,36768
2018-07-29T13:01:06.471Z,33056
2018-07-29T13:02:07.209Z,34624
2018-07-29T13:03:07.988Z,38720
2018-07-29T13:04:08.737Z,34336
2018-07-29T13:05:09.485Z,35136
2018-07-29T13:06:10.324Z,38080
2018-07-29T13:07:10.973Z,35232
2018-07-29T13:08:11.727Z,34752
2018-07-29T13:09:12.467Z,33792
2018-07-29T13:10:13.199Z,32320
2018-07-29T13:11:13.949Z,32960
2018-07-29T13:12:14.684Z,35072
2018-07-29T13:13:15.691Z,35968
2018-07-29T13:14:16.417Z,38176
2018-07-29T13:15:17.157Z,43168
2018-07-29T13:16:17.893Z,45440
2018-07-29T13:17:18.637Z,56192
2018-07-29T13:18:19.428Z,51392
2018-07-29T13:19:20.251Z,46272
2018-07-29T13:20:21.140Z,46688
2018-07-29T13:21:21.897Z,43296
2018-07-29T13:22:22.625Z,40320
2018-07-29T13:23:23.363Z,39904
2018-07-29T13:24:24.095Z,42432
2018-07-29T13:25:24.854Z,46048
2018-07-29T13:26:26.152Z,46432
2018-07-29T13:27:26.880Z,96480
2018-07-29T13:28:27.677Z,43648
2018-07-29T13:29:28.443Z,39008
2018-07-29T13:30:29.203Z,46912
2018-07-29T13:31:29.971Z,48512
2018-07-29T13:32:30.691Z,98400
2018-07-29T13:33:31.444Z,107040
2018-07-29T13:34:32.184Z,104192
2018-07-29T13:35:32.980Z,82432